createdAt,value
2022-07-25T00:05:44.126Z,84.73
2022-07-25T00:15:48.083Z,88.23
2022-07-25T00:25:53.403Z,86.07
2022-07-25T00:35:57.129Z,86.57
2022-07-25T00:46:02.465Z,88.33
2022-07-25T00:56:08.295Z,85.13
2022-07-25T01:06:14.246Z,84.57
2022-07-25T01:16:18.767Z,83.80
2022-07-25T01:26:24.266Z,85.33
2022-07-25T01:36:28.381Z,87.13
2022-07-25T01:46:33.539Z,84.93
2022-07-25T01:56:37.571Z,85.23
2022-07-25T02:06:44.550Z,83.60
2022-07-25T02:16:48.567Z,83.57
2022-07-25T02:26:53.899Z,83.17
2022-07-25T02:36:57.722Z,81.73
2022-07-25T02:47:02.928Z,85.03
2022-07-25T02:57:06.828Z,83.97
2022-07-25T03:07:12.052Z,81.63
2022-07-25T03:17:15.874Z,82.37
2022-07-25T03:27:21.689Z,81.67
2022-07-25T03:37:25.461Z,82.17
2022-07-25T03:47:30.751Z,83.00
2022-07-25T03:57:34.439Z,84.53
2022-07-25T04:07:40.300Z,83.10
2022-07-25T04:17:44.179Z,83.03
2022-07-25T04:27:51.069Z,80.40
2022-07-25T04:37:55.198Z,83.03
2022-07-25T04:48:00.400Z,85.47
2022-07-25T04:58:04.484Z,86.60
2022-07-25T05:08:09.625Z,89.47
2022-07-25T05:18:13.507Z,92.03
2022-07-25T05:28:18.614Z,90.60
2022-07-25T05:38:22.736Z,94.07
2022-07-25T05:48:28.101Z,93.83
2022-07-25T05:58:32.738Z,96.30
2022-07-25T06:08:38.191Z,98.17
2022-07-25T06:18:41.962Z,100.40
2022-07-25T06:28:47.302Z,100.77
2022-07-25T06:38:52.222Z,118.00
2022-07-25T06:48:58.361Z,100.30
2022-07-25T06:59:02.470Z,103.30
2022-07-25T07:09:08.187Z,103.97
2022-07-25T07:19:12.305Z,107.72
2022-07-25T07:29:17.456Z,108.75
2022-07-25T07:39:21.006Z,112.00
2022-07-25T07:49:26.192Z,115.07
2022-07-25T07:59:30.064Z,118.57
2022-07-25T08:09:34.883Z,124.63
2022-07-25T08:19:38.567Z,130.38
2022-07-25T08:29:43.882Z,133.32
2022-07-25T08:39:47.422Z,150.93
2022-07-25T08:49:53.440Z,140.57
2022-07-25T09:00:00.127Z,147.57
2022-07-25T09:10:16.561Z,148.35
2022-07-25T09:20:21.422Z,155.07
2022-07-25T09:30:26.454Z,152.82
2022-07-25T09:40:30.416Z,166.48
2022-07-25T09:50:35.567Z,158.52
2022-07-25T10:00:42.669Z,170.30
2022-07-25T10:10:47.887Z,169.35
2022-07-25T10:20:54.824Z,174.02
2022-07-25T10:31:00.750Z,178.10
2022-07-25T10:41:09.019Z,188.10
2022-07-25T10:51:15.296Z,193.40
2022-07-25T11:01:24.789Z,197.93
2022-07-25T11:11:43.121Z,201.18
2022-07-25T11:21:48.599Z,195.05
2022-07-25T11:32:00.718Z,199.02
2022-07-25T11:42:07.756Z,195.25
2022-07-25T11:52:22.837Z,203.65
2022-07-25T12:02:29.062Z,201.68
2022-07-25T12:12:55.808Z,197.27
2022-07-25T12:23:03.308Z,185.02
2022-07-25T12:33:09.085Z,188.82
2022-07-25T12:43:12.801Z,176.63
2022-07-25T12:53:17.905Z,173.00
2022-07-25T13:03:21.452Z,169.52
2022-07-25T13:13:26.407Z,159.07
2022-07-25T13:23:29.885Z,153.00
2022-07-25T13:33:35.204Z,149.40
2022-07-25T13:43:38.862Z,140.98
2022-07-25T13:53:45.006Z,140.82
2022-07-25T14:03:49.123Z,138.20
2022-07-25T14:13:55.913Z,135.90
2022-07-25T14:23:59.521Z,132.77
2022-07-25T14:35:32.311Z,142.88
2022-07-25T14:45:37.937Z,130.95
2022-07-25T14:55:41.759Z,133.43
2022-07-25T15:05:47.026Z,131.23
2022-07-25T15:15:50.928Z,132.63
2022-07-25T15:54:40.397Z,149.75
2022-07-25T16:04:44.915Z,152.68
2022-07-25T16:14:50.738Z,134.68
2022-07-25T16:24:54.514Z,129.55
2022-07-25T16:34:59.509Z,125.65
2022-07-25T16:45:03.187Z,129.60
2022-07-25T16:55:09.010Z,123.38
2022-07-25T17:05:13.000Z,127.35
2022-07-25T17:15:18.343Z,123.05
2022-07-25T17:25:22.369Z,135.68
2022-07-25T17:35:27.655Z,120.97
2022-07-25T17:45:31.302Z,122.07
2022-07-25T17:55:39.054Z,125.97
2022-07-25T18:05:44.594Z,120.88
2022-07-25T18:15:51.054Z,121.47
2022-07-25T18:25:56.836Z,116.45
2022-07-25T18:36:07.231Z,128.35
2022-07-25T18:46:12.861Z,131.73
2022-07-25T18:56:19.799Z,122.78
2022-07-25T19:06:23.755Z,116.15
2022-07-25T19:16:29.208Z,126.10
2022-07-25T19:26:33.491Z,123.72
2022-07-25T19:36:38.527Z,114.80
2022-07-25T19:46:42.240Z,112.78
2022-07-25T19:56:47.276Z,103.25
2022-07-25T20:06:51.214Z,105.73
2022-07-25T20:16:57.896Z,105.90
2022-07-25T20:27:01.846Z,105.55
2022-07-25T20:37:06.877Z,112.30
2022-07-25T20:47:13.621Z,112.78
2022-07-25T20:57:19.157Z,106.95
2022-07-25T21:07:23.245Z,114.43
2022-07-25T21:17:28.516Z,105.13
2022-07-25T21:27:32.448Z,106.97
2022-07-25T21:37:37.543Z,105.30
2022-07-25T21:47:41.426Z,104.00
2022-07-25T21:57:46.183Z,99.75
2022-07-25T22:07:50.074Z,107.40
2022-07-25T22:17:54.865Z,94.30
2022-07-25T22:27:58.210Z,96.90
2022-07-25T22:38:02.951Z,100.07
2022-07-25T22:48:07.136Z,95.37
2022-07-25T22:58:11.891Z,89.63
2022-07-25T23:08:15.364Z,90.27
2022-07-25T23:18:21.742Z,93.30
2022-07-25T23:28:25.112Z,87.90
2022-07-25T23:38:29.791Z,89.47
2022-07-25T23:48:33.256Z,88.63
2022-07-25T23:58:37.994Z,95.30
